Bimbo, Central African Republic
Current Conditions -  °F | °C
As of 2:00 AM on Sunday 23 Nov 2014 (Local Time) from FEFF Reporting Station
Broken Clouds Broken Clouds  
Wind Chill: 70°   Ceiling: 15000
Heat Index: 70°   Visibility: 6mi
Dew Point: 68°   Wind: 1mph
Humidity: 94%   Direction: NA
Pressure: 29.88"   Gusts: NA
Location:  4.3°N, 18.54°E
Report Text: FEFF 230100Z VRB01KT 9999 FEW005 BKN150 21/20 Q1012 NOSIG
Loading
Personal Weather Stations






























Interactive Weather Map New forecast layout! Learn more

10-Day Weather Forecast

Advertisements
Track Severe Weather on mobile